Time;durP1;ratioP1;P1;durP2;ratioP2;P2;SDS_P1;SDS_P2;PMS_P1;PMS_P2;Temp;Humidity;BMP_temperature;BMP_pressure;BME280_temperature;BME280_humidity;BME280_pressure;Samples;Min_cycle;Max_cycle;Signal;HPM_P1;HPM_P2
2022/02/07 00:01:31;;;;;;;6.95;1.55;;;;;;;4.93;100.00;101008.88;5286483;28;20038;-80
2022/02/07 00:04:04;;;;;;;9.40;1.90;;;;;;;4.96;100.00;101029.03;5287403;28;20028;-79
2022/02/07 00:06:34;;;;;;;17.55;1.90;;;;;;;5.00;100.00;101040.28;5285399;28;20077;-79
2022/02/07 00:09:05;;;;;;;17.65;2.85;;;;;;;5.04;100.00;101049.69;5288372;28;20023;-80
2022/02/07 00:11:35;;;;;;;13.55;1.80;;;;;;;5.00;100.00;101062.38;5291198;28;20111;-80
2022/02/07 00:14:06;;;;;;;9.88;1.55;;;;;;;4.91;100.00;101082.56;5289597;28;20030;-80
2022/02/07 00:16:37;;;;;;;7.50;1.58;;;;;;;4.92;100.00;101075.47;5289925;28;20082;-79
2022/02/07 00:19:11;;;;;;;9.13;1.40;;;;;;;4.91;100.00;101069.28;5289797;28;20015;-80
2022/02/07 00:21:42;;;;;;;13.53;1.70;;;;;;;4.79;100.00;101082.75;5289950;28;20152;-80
2022/02/07 00:24:12;;;;;;;6.45;1.77;;;;;;;4.80;100.00;101105.69;5271419;28;20863;-80
2022/02/07 00:26:43;;;;;;;13.02;2.17;;;;;;;4.85;100.00;101109.66;5272111;28;20023;-80
2022/02/07 00:29:15;;;;;;;19.15;2.45;;;;;;;4.85;100.00;101114.97;5289979;28;20027;-80
2022/02/07 00:31:45;;;;;;;13.30;1.85;;;;;;;4.87;100.00;101130.78;5286976;28;20027;-80
2022/02/07 00:34:16;;;;;;;12.13;1.75;;;;;;;4.84;100.00;101139.03;5271220;28;20023;-80
2022/02/07 00:36:47;;;;;;;11.57;1.80;;;;;;;4.72;100.00;101143.53;5271835;28;20020;-80
2022/02/07 00:39:27;;;;;;;13.23;1.67;;;;;;;4.72;100.00;101158.59;5290144;28;20387;-80
2022/02/07 00:42:03;;;;;;;16.02;2.13;;;;;;;4.73;100.00;101155.84;5289354;28;20026;-80
2022/02/07 00:44:36;;;;;;;20.33;1.95;;;;;;;4.72;100.00;101177.19;5289857;28;20030;-80
2022/02/07 00:47:09;;;;;;;9.35;1.58;;;;;;;4.70;100.00;101182.66;5290139;28;20027;-80
2022/02/07 00:49:39;;;;;;;12.52;1.73;;;;;;;4.64;100.00;101191.94;5290210;28;20099;-80
2022/02/07 00:52:10;;;;;;;14.55;2.53;;;;;;;4.66;100.00;101191.81;5283537;28;20091;-80
2022/02/07 00:54:40;;;;;;;11.40;2.08;;;;;;;4.64;100.00;101205.25;5271485;28;20506;-80
2022/02/07 00:57:11;;;;;;;10.13;1.85;;;;;;;4.61;100.00;101224.06;5272216;28;20106;-80
2022/02/07 00:59:41;;;;;;;14.93;1.88;;;;;;;4.63;100.00;101218.66;5278208;28;20011;-80
2022/02/07 01:02:12;;;;;;;13.63;2.42;;;;;;;4.59;100.00;101222.50;5275864;28;20114;-80
2022/02/07 01:04:42;;;;;;;10.77;1.83;;;;;;;4.60;100.00;101242.78;5271111;28;20012;-80
2022/02/07 01:07:13;;;;;;;13.32;1.42;;;;;;;4.60;100.00;101258.75;5288656;28;20051;-80
2022/02/07 01:09:50;;;;;;;17.02;1.77;;;;;;;4.59;100.00;101267.69;5288514;28;20023;-82
2022/02/07 01:12:39;;;;;;;11.98;2.05;;;;;;;4.59;100.00;101284.47;5270903;28;20031;-83
2022/02/07 01:51:16;;;;;;;12.30;1.95;;;;;;;4.50;100.00;101426.00;5287586;28;20027;-78
2022/02/07 01:54:07;;;;;;;16.98;2.50;;;;;;;4.51;100.00;101443.63;5282168;28;20110;-78
2022/02/07 01:56:37;;;;;;;14.43;1.90;;;;;;;4.50;100.00;101447.25;5287574;28;20206;-78
2022/02/07 01:59:08;;;;;;;15.70;2.33;;;;;;;4.50;100.00;101467.66;5287683;28;20026;-78
2022/02/07 02:01:38;;;;;;;15.38;2.05;;;;;;;4.41;100.00;101490.41;5287455;28;20472;-78
2022/02/07 02:04:09;;;;;;;23.10;2.45;;;;;;;4.36;100.00;101493.41;5287520;28;20034;-78
2022/02/07 02:06:40;;;;;;;14.25;2.38;;;;;;;4.26;100.00;101502.16;5287761;28;20482;-78
2022/02/07 02:09:12;;;;;;;19.58;1.90;;;;;;;4.27;100.00;101515.34;5288181;28;20487;-78
2022/02/07 02:11:53;;;;;;;16.13;2.40;;;;;;;4.23;100.00;101524.47;5275522;28;20510;-78
2022/02/07 02:14:44;;;;;;;22.83;3.13;;;;;;;4.19;100.00;101527.47;5288190;28;20024;-78
2022/02/07 02:17:46;;;;;;;16.02;4.10;;;;;;;4.16;100.00;101541.78;5288647;28;20023;-78
2022/02/07 02:37:20;;;;;;;14.65;2.22;;;;;;;4.31;100.00;101582.34;5288036;28;20027;-78
2022/02/07 02:48:22;;;;;;;13.02;2.08;;;;;;;4.18;100.00;101594.81;5288111;28;20076;-79
2022/02/07 02:50:55;;;;;;;10.45;2.17;;;;;;;4.17;100.00;101588.66;5287915;28;20020;-78
2022/02/07 02:53:25;;;;;;;15.55;2.33;;;;;;;4.15;100.00;101596.72;5282098;28;20025;-79
2022/02/07 02:55:56;;;;;;;20.23;2.83;;;;;;;4.14;100.00;101604.78;5287881;28;20460;-78
2022/02/07 02:58:27;;;;;;;15.88;2.10;;;;;;;4.08;100.00;101618.50;5288284;28;20433;-78
2022/02/07 03:00:57;;;;;;;24.50;3.20;;;;;;;4.07;100.00;101625.63;5289054;28;20458;-78
2022/02/07 03:03:28;;;;;;;19.27;2.75;;;;;;;4.01;100.00;101633.97;5290679;28;20110;-78
2022/02/07 03:05:59;;;;;;;18.00;2.25;;;;;;;3.99;100.00;101635.06;5290600;28;20034;-78
2022/02/07 03:08:30;;;;;;;12.50;2.00;;;;;;;3.97;100.00;101651.09;5291192;28;20098;-78
2022/02/07 03:13:45;;;;;;;18.45;2.65;;;;;;;3.97;100.00;101659.06;5292109;28;20043;-78
2022/02/07 03:19:11;;;;;;;14.75;2.45;;;;;;;3.97;100.00;101674.16;5285993;28;20027;-78
2022/02/07 03:21:43;;;;;;;14.13;2.03;;;;;;;3.95;100.00;101690.16;5285686;28;20019;-78
2022/02/07 03:24:14;;;;;;;12.32;2.35;;;;;;;3.96;100.00;101698.97;5285576;28;20035;-78
2022/02/07 03:26:47;;;;;;;10.50;1.98;;;;;;;4.03;100.00;101713.56;5285927;28;20027;-78
2022/02/07 03:29:18;;;;;;;17.83;2.38;;;;;;;4.07;100.00;101720.38;5285700;28;20387;-79
2022/02/07 03:31:49;;;;;;;18.40;1.80;;;;;;;4.16;100.00;101730.34;5282767;28;20023;-78
2022/02/07 03:34:19;;;;;;;18.40;3.25;;;;;;;4.12;100.00;101743.00;5272015;28;20100;-78
2022/02/07 03:36:50;;;;;;;16.23;2.03;;;;;;;4.17;100.00;101748.00;5286269;28;20039;-78
2022/02/07 03:39:21;;;;;;;18.50;2.55;;;;;;;4.17;100.00;101755.97;5286204;28;20378;-77
2022/02/07 03:41:51;;;;;;;10.73;3.15;;;;;;;4.24;100.00;101759.91;5285577;28;20032;-77
2022/02/07 03:44:21;;;;;;;14.63;2.05;;;;;;;4.23;100.00;101766.19;5286229;28;20131;-77
2022/02/07 03:46:52;;;;;;;13.07;1.80;;;;;;;4.23;100.00;101768.84;5271847;28;20050;-77
2022/02/07 03:49:22;;;;;;;13.60;1.65;;;;;;;4.27;100.00;101777.47;5290136;28;20020;-77
2022/02/07 03:51:53;;;;;;;20.38;3.08;;;;;;;4.26;100.00;101783.69;5285253;28;20548;-78
2022/02/07 03:54:23;;;;;;;5.70;1.70;;;;;;;4.21;100.00;101794.63;5288549;28;20064;-78
2022/02/07 03:56:54;;;;;;;8.50;1.65;;;;;;;4.19;100.00;101799.22;5290520;28;20023;-79
2022/02/07 03:59:24;;;;;;;15.98;1.67;;;;;;;4.18;100.00;101802.81;5273185;28;20103;-80
2022/02/07 04:01:55;;;;;;;10.30;1.95;;;;;;;4.14;100.00;101817.25;5291124;28;20051;-78
2022/02/07 04:04:25;;;;;;;8.40;1.65;;;;;;;4.12;100.00;101819.16;5276315;28;20020;-78
2022/02/07 04:06:55;;;;;;;5.15;1.55;;;;;;;4.04;100.00;101824.97;5292380;28;20058;-77
2022/02/07 04:09:33;;;;;;;14.10;1.50;;;;;;;3.93;100.00;101823.97;5289610;28;20066;-78
2022/02/07 04:12:09;;;;;;;14.15;1.80;;;;;;;3.85;100.00;101829.75;5271387;28;20034;-78
2022/02/07 04:14:41;;;;;;;15.45;2.30;;;;;;;3.82;100.00;101836.13;5289623;28;20055;-77
2022/02/07 04:17:17;;;;;;;10.57;1.40;;;;;;;3.75;100.00;101842.78;5289494;28;20426;-78
2022/02/07 04:19:55;;;;;;;9.43;1.75;;;;;;;3.70;100.00;101844.88;5283163;28;20027;-77
2022/02/07 04:22:29;;;;;;;17.83;1.95;;;;;;;3.64;100.00;101838.16;5272248;28;20068;-77
2022/02/07 04:24:59;;;;;;;9.35;2.33;;;;;;;3.59;100.00;101848.19;5289346;28;20032;-77
2022/02/07 04:27:30;;;;;;;5.80;1.40;;;;;;;3.52;100.00;101854.00;5289477;28;20096;-77
2022/02/07 04:30:00;;;;;;;12.32;2.08;;;;;;;3.61;100.00;101856.06;5289048;28;20112;-77
2022/02/07 04:32:31;;;;;;;15.00;2.13;;;;;;;3.53;100.00;101861.00;5277152;28;20084;-77
2022/02/07 04:35:02;;;;;;;10.88;2.15;;;;;;;3.56;100.00;101858.16;5289567;28;20493;-77
2022/02/07 04:37:33;;;;;;;16.80;1.95;;;;;;;3.53;100.00;101874.28;5291740;28;20038;-78
2022/02/07 04:40:04;;;;;;;9.85;1.55;;;;;;;3.52;100.00;101880.53;5270921;28;20339;-77
2022/02/07 04:42:35;;;;;;;11.40;2.20;;;;;;;3.51;100.00;101886.78;5289299;28;20031;-77
2022/02/07 04:45:24;;;;;;;15.18;2.40;;;;;;;3.48;100.00;101893.13;5289028;28;20475;-77
2022/02/07 04:57:04;;;;;;;12.25;1.90;;;;;;;3.44;100.00;101919.94;5287565;28;20034;-77
2022/02/07 04:59:14;;;;;;;11.18;1.77;;;;;;;3.51;100.00;101916.81;5288486;28;20091;-77
2022/02/07 05:01:50;;;;;;;15.25;3.83;;;;;;;3.53;100.00;101924.69;5273790;28;20020;-78
2022/02/07 05:04:27;;;;;;;30.40;9.15;;;;;;;3.48;100.00;101948.00;5290983;28;20031;-78
2022/02/07 05:15:25;;;;;;;19.38;2.75;;;;;;;3.36;100.00;101971.69;5288432;28;20099;-78
2022/02/07 05:17:55;;;;;;;12.75;2.42;;;;;;;3.34;100.00;101980.66;5288923;28;20114;-78
2022/02/07 05:20:25;;;;;;;41.20;5.88;;;;;;;3.32;100.00;101978.09;5288696;28;20051;-78
2022/02/07 05:22:56;;;;;;;17.38;3.25;;;;;;;3.34;100.00;101988.63;5288545;28;20096;-78
2022/02/07 05:25:26;;;;;;;16.25;4.43;;;;;;;3.26;100.00;102004.13;5288050;28;20028;-78
2022/02/07 05:27:57;;;;;;;19.75;2.35;;;;;;;3.27;100.00;102006.72;5288300;28;20019;-78
2022/02/07 05:30:27;;;;;;;15.27;2.42;;;;;;;3.28;100.00;102012.84;5269642;28;20431;-78
2022/02/07 05:32:58;;;;;;;29.98;9.20;;;;;;;3.19;100.00;102016.91;5269819;28;20020;-78
2022/02/07 05:35:28;;;;;;;15.32;3.00;;;;;;;3.14;100.00;102024.28;5287577;28;20363;-78
2022/02/07 05:37:59;;;;;;;11.02;1.92;;;;;;;3.09;100.00;102034.28;5288182;28;20118;-77
2022/02/07 05:43:00;;;;;;;24.92;4.57;;;;;;;2.90;100.00;102044.25;5287500;28;20047;-77
2022/02/07 05:45:31;;;;;;;9.20;2.70;;;;;;;2.84;100.00;102056.91;5287304;28;20051;-77
2022/02/07 05:48:02;;;;;;;15.90;3.22;;;;;;;2.79;100.00;102056.31;5287806;28;20023;-77
2022/02/07 05:50:32;;;;;;;10.35;2.17;;;;;;;2.83;100.00;102062.31;5287337;28;20028;-77
2022/02/07 05:53:03;;;;;;;14.07;2.50;;;;;;;2.85;100.00;102063.91;5281079;28;20019;-77
2022/02/07 05:55:33;;;;;;;24.27;2.90;;;;;;;2.91;100.00;102075.09;5269025;28;20494;-77
2022/02/07 05:58:04;;;;;;;15.48;4.88;;;;;;;2.97;100.00;102077.44;5287445;28;20023;-77
2022/02/07 06:00:36;;;;;;;14.57;2.08;;;;;;;3.04;100.00;102084.94;5287942;28;20030;-78
2022/02/07 06:03:07;;;;;;;13.65;5.30;;;;;;;3.07;100.00;102089.22;5288887;28;20034;-82
2022/02/07 06:05:38;;;;;;;17.20;4.07;;;;;;;3.07;100.00;102094.53;5270930;28;20012;-81
2022/02/07 06:08:08;;;;;;;18.42;4.82;;;;;;;3.10;100.00;102097.81;5270945;28;20047;-81
2022/02/07 06:10:38;;;;;;;39.17;12.02;;;;;;;3.08;100.00;102091.78;5271600;28;20027;-79
2022/02/07 06:13:28;;;;;;;26.88;3.90;;;;;;;3.07;100.00;102098.03;5289499;28;20371;-77
2022/02/07 06:15:58;;;;;;;19.73;6.95;;;;;;;3.05;100.00;102093.72;5287427;28;20020;-79
2022/02/07 06:18:30;;;;;;;20.48;5.95;;;;;;;3.08;100.00;102098.88;5291122;28;20073;-81
2022/02/07 06:21:04;;;;;;;45.47;11.80;;;;;;;3.09;100.00;102108.53;5271152;28;20562;-80
2022/02/07 06:23:34;;;;;;;17.90;5.97;;;;;;;3.11;100.00;102107.53;5271051;28;20114;-80
2022/02/07 06:26:05;;;;;;;17.50;3.17;;;;;;;3.18;100.00;102115.97;5288306;28;20111;-80
2022/02/07 06:28:36;;;;;;;11.43;2.20;;;;;;;3.18;100.00;102121.28;5288856;28;20479;-79
2022/02/07 06:31:06;;;;;;;14.88;2.70;;;;;;;3.18;100.00;102117.78;5283384;28;20593;-77
2022/02/07 06:33:36;;;;;;;12.60;2.97;;;;;;;3.13;100.00;102125.97;5279718;28;20027;-77
2022/02/07 06:36:07;;;;;;;21.48;4.43;;;;;;;3.10;100.00;102127.00;5268681;28;20148;-77
2022/02/07 06:38:38;;;;;;;11.57;2.50;;;;;;;3.10;100.00;102127.00;5288344;28;20091;-79
2022/02/07 06:41:09;;;;;;;12.40;3.30;;;;;;;3.07;100.00;102132.50;5268469;28;20027;-78
2022/02/07 06:43:39;;;;;;;15.75;2.70;;;;;;;3.09;100.00;102137.69;5287447;28;20058;-83
2022/02/07 06:46:10;;;;;;;23.80;2.75;;;;;;;3.11;100.00;102142.00;5270000;28;20090;-81
2022/02/07 06:48:40;;;;;;;19.33;2.35;;;;;;;3.15;100.00;102155.91;5294165;28;20026;-81
2022/02/07 06:51:11;;;;;;;13.80;2.75;;;;;;;3.16;100.00;102162.06;5274227;28;20015;-81
2022/02/07 06:53:41;;;;;;;18.58;1.83;;;;;;;3.26;100.00;102164.13;5286460;28;20031;-81
2022/02/07 06:56:12;;;;;;;20.90;2.60;;;;;;;3.30;100.00;102170.97;5292306;28;20031;-82
2022/02/07 06:58:42;;;;;;;9.20;2.38;;;;;;;3.31;100.00;102185.94;5274465;28;20041;-81
2022/02/07 07:01:13;;;;;;;17.15;4.32;;;;;;;3.31;100.00;102191.25;5293601;28;20063;-81
2022/02/07 07:03:45;;;;;;;23.80;6.00;;;;;;;3.35;100.00;102202.53;5274767;28;20051;-81
2022/02/07 07:06:16;;;;;;;15.75;2.38;;;;;;;3.41;100.00;102206.63;5292235;28;20027;-82
2022/02/07 07:08:51;;;;;;;22.50;6.13;;;;;;;3.47;100.00;102212.47;5257360;28;20015;-82
2022/02/07 07:11:27;;;;;;;19.95;3.35;;;;;;;3.49;100.00;102212.38;5273241;28;20020;-80
2022/02/07 07:14:04;;;;;;;17.63;2.47;;;;;;;3.53;100.00;102209.47;5287904;28;20026;-80
2022/02/07 07:19:05;;;;;;;14.38;2.53;;;;;;;3.51;100.00;102219.28;5286933;28;20152;-82
2022/02/07 07:21:36;;;;;;;16.80;2.58;;;;;;;3.54;100.00;102223.56;5287586;28;20039;-83
2022/02/07 07:24:06;;;;;;;16.73;2.00;;;;;;;3.60;100.00;102247.09;5287343;28;20032;-82
2022/02/07 07:26:37;;;;;;;12.50;2.78;;;;;;;3.66;100.00;102257.38;5289426;28;20024;-81
2022/02/07 07:29:13;;;;;;;10.77;2.03;;;;;;;3.72;100.00;102261.50;5290259;28;20036;-82
2022/02/07 07:31:49;;;;;;;11.93;2.92;;;;;;;3.74;100.00;102267.56;5292107;28;20062;-83
2022/02/07 07:34:20;;;;;;;13.73;2.78;;;;;;;3.78;100.00;102272.59;5270524;28;20479;-80
2022/02/07 07:36:50;;;;;;;23.33;2.30;;;;;;;3.82;100.00;102273.31;5285990;28;20031;-77
2022/02/07 07:39:21;;;;;;;11.20;1.85;;;;;;;3.85;100.00;102284.56;5287245;28;20431;-77
2022/02/07 07:41:52;;;;;;;14.43;2.58;;;;;;;3.92;100.00;102279.78;5272235;28;20026;-79
2022/02/07 07:44:28;;;;;;;19.00;3.30;;;;;;;3.96;100.00;102275.13;5273381;28;20031;-79
2022/02/07 07:47:05;;;;;;;10.93;2.45;;;;;;;3.99;100.00;102280.28;5292350;28;20027;-79
2022/02/07 07:49:45;;;;;;;23.23;2.05;;;;;;;4.01;100.00;102289.84;5292319;28;20604;-79
2022/02/07 07:52:25;;;;;;;12.88;3.42;;;;;;;4.11;100.00;102292.84;5271098;28;20106;-78
2022/02/07 07:55:23;;;;;;;12.55;2.47;;;;;;;4.19;100.00;102300.38;5258293;28;20020;-79
2022/02/07 08:03:27;;;;;;;13.80;2.13;;;;;;;4.34;100.00;102339.31;5291371;28;20069;-78
2022/02/07 08:06:13;;;;;;;11.93;2.40;;;;;;;4.28;100.00;102340.53;5290006;28;20012;-79
2022/02/07 08:11:16;;;;;;;12.77;2.22;;;;;;;4.33;100.00;102367.69;5267260;28;20119;-79
2022/02/07 08:13:47;;;;;;;15.43;6.07;;;;;;;4.37;100.00;102379.88;5270051;28;20367;-79
2022/02/07 08:16:17;;;;;;;30.08;3.33;;;;;;;4.41;100.00;102391.16;5285362;28;20044;-79
2022/02/07 08:18:48;;;;;;;27.05;4.10;;;;;;;4.47;100.00;102397.91;5285522;28;20085;-79
2022/02/07 08:21:18;;;;;;;12.73;2.35;;;;;;;4.52;100.00;102404.69;5285364;28;20020;-79
2022/02/07 08:23:49;;;;;;;9.65;2.22;;;;;;;4.59;100.00;102407.84;5285222;28;20088;-79
2022/02/07 08:26:19;;;;;;;11.85;2.22;;;;;;;4.89;100.00;102403.38;5285401;28;20031;-79
2022/02/07 08:28:50;;;;;;;11.25;1.98;;;;;;;5.16;100.00;102405.31;5285790;28;20107;-79
2022/02/07 08:31:20;;;;;;;12.77;2.63;;;;;;;5.21;100.00;102408.56;5280744;28;20024;-79
2022/02/07 08:33:51;;;;;;;19.98;2.90;;;;;;;5.13;100.00;102405.53;5267480;28;20110;-79
2022/02/07 08:36:22;;;;;;;17.25;2.30;;;;;;;5.04;100.00;102416.72;5271430;28;20485;-79
2022/02/07 08:38:53;;;;;;;10.70;2.40;;;;;;;5.03;100.00;102439.81;5289388;28;20031;-79
2022/02/07 08:41:23;;;;;;;20.33;2.65;;;;;;;4.97;100.00;102440.19;5288908;28;20031;-78
2022/02/07 08:43:54;;;;;;;17.20;6.07;;;;;;;4.98;100.00;102436.56;5297177;28;20034;-85
2022/02/07 08:46:24;;;;;;;11.38;2.75;;;;;;;5.00;100.00;102437.31;5274045;28;20394;-79
2022/02/07 08:48:56;;;;;;;19.60;2.70;;;;;;;5.08;100.00;102448.38;5289163;28;20069;-79
2022/02/07 08:51:30;;;;;;;21.13;3.97;;;;;;;5.17;100.00;102447.81;5287746;28;20108;-79
2022/02/07 08:54:04;;;;;;;86.55;39.35;;;;;;;5.28;100.00;102454.28;5284101;28;20133;-78
2022/02/07 08:59:26;;;;;;;16.95;5.70;;;;;;;5.75;100.00;102472.66;5288864;28;20035;-79
2022/02/07 09:07:23;;;;;;;10.48;2.92;;;;;;;7.71;100.00;102465.88;5289236;28;20110;-79
2022/02/07 09:09:54;;;;;;;15.57;3.35;;;;;;;7.83;100.00;102476.63;5271904;28;20072;-80
2022/02/07 09:12:24;;;;;;;15.77;2.50;;;;;;;7.47;100.00;102492.47;5289177;28;20471;-80
2022/02/07 09:14:59;;;;;;;13.13;2.40;;;;;;;7.82;100.00;102494.50;5289254;28;20329;-80
2022/02/07 09:17:30;;;;;;;12.07;2.35;;;;;;;8.34;100.00;102498.81;5254967;28;20083;-80
2022/02/07 09:20:00;;;;;;;8.98;2.50;;;;;;;9.07;100.00;102498.69;5289323;28;20436;-80
2022/02/07 09:22:30;;;;;;;14.88;2.70;;;;;;;9.46;100.00;102501.97;5289171;28;20046;-80
2022/02/07 09:25:01;;;;;;;16.92;2.63;;;;;;;9.62;100.00;102506.16;5270826;28;20023;-80
2022/02/07 09:27:32;;;;;;;15.20;2.55;;;;;;;9.72;100.00;102518.72;5254430;28;20024;-81
2022/02/07 09:30:06;;;;;;;13.35;2.28;;;;;;;10.31;100.00;102509.59;5288959;28;20244;-81
2022/02/07 09:32:37;;;;;;;13.37;2.57;;;;;;;10.30;100.00;102521.31;5277247;28;20075;-81
2022/02/07 09:35:08;;;;;;;15.38;3.00;;;;;;;10.12;100.00;102518.25;5289173;28;20023;-81
2022/02/07 09:37:38;;;;;;;10.70;2.50;;;;;;;10.36;100.00;102521.66;5287906;28;20035;-81
2022/02/07 09:40:10;;;;;;;12.98;3.47;;;;;;;10.24;100.00;102521.78;5269687;28;20027;-79
2022/02/07 09:42:46;;;;;;;10.30;2.00;;;;;;;10.69;100.00;102535.97;5252588;28;20073;-80
2022/02/07 09:45:28;;;;;;;;;;;;;;;10.99;100.00;102546.00;5288787;28;20027;-78
2022/02/07 09:48:05;;;;;;;14.38;3.25;;;;;;;10.77;100.00;102559.53;5270602;28;19907;-79
2022/02/07 09:50:37;;;;;;;11.93;2.90;;;;;;;10.43;100.00;102556.91;5256627;28;20024;-79
2022/02/07 09:53:07;;;;;;;9.50;4.18;;;;;;;10.62;100.00;102556.25;5282767;28;20024;-79
2022/02/07 09:55:38;;;;;;;6.18;1.98;;;;;;;10.79;100.00;102561.13;5271184;28;20023;-80
2022/02/07 09:58:09;;;;;;;10.25;2.30;;;;;;;11.11;100.00;102560.28;5289262;28;20020;-80
2022/02/07 10:00:40;;;;;;;16.40;3.03;;;;;;;11.55;100.00;102575.34;5270914;28;20038;-80
2022/02/07 10:03:17;;;;;;;12.07;2.90;;;;;;;11.10;100.00;102591.66;5289082;28;20020;-79
2022/02/07 10:06:05;;;;;;;14.57;3.47;;;;;;;11.11;100.00;102592.50;5256222;28;20034;-79
2022/02/07 10:08:58;;;;;;;10.15;2.28;;;;;;;10.95;100.00;102603.66;5265234;28;20112;-84
2022/02/07 10:14:24;;;;;;;8.63;2.50;;;;;;;10.44;100.00;102609.59;5283106;28;20098;-80
2022/02/07 10:34:28;;;;;;;15.60;2.40;;;;;;;9.15;100.00;102632.00;5287086;28;20023;-79
2022/02/07 10:40:36;;;;;;;7.95;2.10;;;;;;;8.24;100.00;102658.19;5286837;28;20512;-80
2022/02/07 10:43:15;;;;;;;17.85;2.08;;;;;;;8.28;100.00;102665.00;5286736;28;20062;-80
2022/02/07 10:45:50;;;;;;;10.25;1.90;;;;;;;8.15;100.00;102674.88;5286404;28;20012;-80
2022/02/07 10:48:41;;;;;;;12.70;2.20;;;;;;;8.22;100.00;102668.13;5286745;28;20080;-80
2022/02/07 10:51:16;;;;;;;10.43;1.88;;;;;;;8.14;100.00;102671.34;5286250;28;20174;-80
2022/02/07 10:54:18;;;;;;;8.90;2.28;;;;;;;8.14;100.00;102678.50;5279969;28;20470;-80
2022/02/07 10:56:51;;;;;;;16.60;1.90;;;;;;;8.39;100.00;102680.34;5284129;28;20372;-80
2022/02/07 10:59:22;;;;;;;21.50;5.70;;;;;;;8.39;100.00;102683.03;5286850;28;20057;-80
2022/02/07 11:02:32;;;;;;;12.13;2.45;;;;;;;8.61;100.00;102685.03;5287018;28;20027;-80
2022/02/07 11:04:55;;;;;;;16.52;2.45;;;;;;;8.65;100.00;102689.22;5287671;28;20020;-80
2022/02/07 11:07:28;;;;;;;13.80;2.28;;;;;;;8.62;100.00;102684.06;5270154;28;20092;-80
2022/02/07 11:10:19;;;;;;;13.35;4.35;;;;;;;8.39;100.00;102680.34;5287424;28;20023;-80
2022/02/07 11:15:49;;;;;;;12.20;4.03;;;;;;;8.47;100.00;102684.19;5287616;28;20023;-80
2022/02/07 11:18:51;;;;;;;9.82;2.00;;;;;;;8.74;100.00;102684.06;5270710;28;20077;-79
2022/02/07 11:21:34;;;;;;;12.30;3.22;;;;;;;8.80;100.00;102685.44;5286232;28;20534;-80
2022/02/07 11:24:35;;;;;;;15.02;2.60;;;;;;;8.72;100.00;102685.13;5268076;28;20422;-80
2022/02/07 11:27:41;;;;;;;7.03;2.03;;;;;;;8.85;100.00;102677.94;5286056;28;20467;-80
2022/02/07 11:30:14;;;;;;;13.73;3.33;;;;;;;8.86;100.00;102686.81;5286089;28;20046;-80
2022/02/07 11:32:47;;;;;;;14.25;3.40;;;;;;;8.77;100.00;102691.84;5282369;28;20023;-80
2022/02/07 11:35:21;;;;;;;10.98;2.33;;;;;;;8.65;100.00;102689.22;5285680;28;20151;-80
2022/02/07 11:38:10;;;;;;;10.05;1.92;;;;;;;8.65;100.00;102690.06;5286542;28;20051;-80
2022/02/07 11:40:42;;;;;;;18.13;2.90;;;;;;;8.85;100.00;102691.31;5285764;28;20526;-80
2022/02/07 11:43:31;;;;;;;15.45;3.30;;;;;;;8.78;100.00;102679.34;5285778;28;20066;-80
2022/02/07 11:46:05;;;;;;;32.83;14.73;;;;;;;8.87;100.00;102667.13;5267681;28;20028;-80
2022/02/07 11:48:38;;;;;;;28.00;7.33;;;;;;;8.63;100.00;102661.69;5285845;28;20499;-80
2022/02/07 11:51:11;;;;;;;16.25;3.50;;;;;;;8.55;100.00;102660.44;5286929;28;20761;-80
2022/02/07 11:53:47;;;;;;;26.35;5.75;;;;;;;8.59;100.00;102660.22;5282170;28;20032;-80
2022/02/07 11:56:40;;;;;;;13.70;2.60;;;;;;;8.79;100.00;102670.38;5287727;28;20019;-80
2022/02/07 12:02:18;;;;;;;16.67;2.42;;;;;;;8.86;100.00;102665.41;5285311;28;20050;-80
2022/02/07 12:04:51;;;;;;;14.10;2.30;;;;;;;8.97;100.00;102663.66;5267674;28;20023;-80
2022/02/07 12:07:36;;;;;;;11.07;1.90;;;;;;;8.89;100.00;102660.69;5290333;28;20076;-80
2022/02/07 12:12:41;;;;;;;12.25;1.95;;;;;;;8.88;100.00;102666.16;5290171;28;20038;-80
2022/02/07 12:15:13;;;;;;;10.55;2.67;;;;;;;8.82;100.00;102665.63;5289879;28;20518;-79
2022/02/07 12:18:17;;;;;;;12.05;2.65;;;;;;;8.72;100.00;102677.09;5290038;28;20077;-80
2022/02/07 12:20:51;;;;;;;11.55;2.08;;;;;;;8.64;100.00;102674.13;5284698;28;20038;-81
2022/02/07 12:23:54;;;;;;;10.52;1.67;;;;;;;8.49;100.00;102670.72;5290297;28;20072;-81
2022/02/07 12:26:25;;;;;;;14.75;3.03;;;;;;;8.51;100.00;102671.47;5275618;28;20394;-81
2022/02/07 12:28:58;;;;;;;12.02;2.05;;;;;;;8.66;100.00;102669.53;5271853;28;20019;-81
2022/02/07 12:31:29;;;;;;;8.60;2.30;;;;;;;8.61;100.00;102661.81;5264170;28;20038;-81
2022/02/07 12:34:03;;;;;;;9.73;2.30;;;;;;;8.53;100.00;102658.81;5287195;28;20553;-81
2022/02/07 12:36:36;;;;;;;16.48;2.92;;;;;;;8.61;100.00;102652.94;5289828;28;20039;-81
2022/02/07 12:39:10;;;;;;;15.85;2.88;;;;;;;8.83;100.00;102650.41;5289750;28;20034;-81
2022/02/07 12:41:43;;;;;;;15.10;3.08;;;;;;;8.72;100.00;102661.03;5289399;28;20507;-80
2022/02/07 12:44:22;;;;;;;8.77;3.03;;;;;;;8.75;100.00;102667.03;5289387;28;20043;-83
2022/02/07 12:46:54;;;;;;;14.95;4.18;;;;;;;8.82;100.00;102670.97;5289452;28;20054;-83
2022/02/07 12:49:26;;;;;;;14.40;2.28;;;;;;;8.67;100.00;102674.75;5289925;28;20088;-83
2022/02/07 12:51:56;;;;;;;11.57;1.95;;;;;;;8.48;100.00;102672.53;5284243;28;20016;-83
2022/02/07 12:54:26;;;;;;;13.70;3.20;;;;;;;8.64;100.00;102684.84;5288344;28;20157;-83
2022/02/07 12:57:00;;;;;;;23.55;8.80;;;;;;;8.76;100.00;102684.81;5289714;28;20118;-83
2022/02/07 12:59:32;;;;;;;15.25;4.68;;;;;;;8.69;100.00;102688.91;5289459;28;20190;-83
2022/02/07 13:02:03;;;;;;;10.88;3.88;;;;;;;8.65;100.00;102683.88;5289568;28;20055;-83
2022/02/07 13:04:33;;;;;;;11.25;3.45;;;;;;;8.52;100.00;102687.38;5270745;28;20058;-82
2022/02/07 13:07:06;;;;;;;12.40;2.72;;;;;;;8.55;100.00;102689.88;5271553;28;20051;-83
2022/02/07 13:15:18;;;;;;;11.98;6.55;;;;;;;8.62;100.00;102692.09;5277687;28;20500;-83
2022/02/07 13:17:52;;;;;;;7.25;1.38;;;;;;;8.80;100.00;102693.47;5271043;28;20072;-83
2022/02/07 13:20:25;;;;;;;11.73;1.48;;;;;;;8.72;100.00;102702.03;5271099;28;20042;-82
2022/02/07 13:23:14;;;;;;;9.88;1.55;;;;;;;8.84;100.00;102702.16;5288904;28;20026;-85
2022/02/07 13:25:50;;;;;;;12.88;4.53;;;;;;;8.75;100.00;102711.69;5288120;28;20030;-84
2022/02/07 13:28:24;;;;;;;4.10;1.27;;;;;;;8.71;100.00;102707.50;5267545;28;20028;-84
2022/02/07 13:30:59;;;;;;;7.93;1.70;;;;;;;8.83;100.00;102711.97;5271763;28;20047;-84
2022/02/07 13:33:30;;;;;;;5.85;1.35;;;;;;;8.82;100.00;102703.09;5267101;28;20023;-84
2022/02/07 13:36:00;;;;;;;6.30;1.45;;;;;;;8.86;100.00;102706.41;5290454;28;20034;-84
2022/02/07 13:38:31;;;;;;;7.03;0.98;;;;;;;8.74;100.00;102704.63;5255512;28;20023;-84
2022/02/07 13:41:01;;;;;;;4.00;1.00;;;;;;;8.75;100.00;102709.00;5288862;28;20031;-84
2022/02/07 13:43:33;;;;;;;5.60;1.10;;;;;;;8.68;100.00;102711.25;5270014;28;20023;-87
2022/02/07 13:46:05;;;;;;;5.78;1.02;;;;;;;8.75;100.00;102717.03;5287769;28;20020;-80
2022/02/07 13:48:35;;;;;;;6.97;1.40;;;;;;;8.75;100.00;102720.56;5288219;28;20107;-80
2022/02/07 13:51:07;;;;;;;11.18;1.63;;;;;;;8.73;100.00;102724.28;5269337;28;20026;-80
2022/02/07 13:53:38;;;;;;;20.50;3.40;;;;;;;8.44;100.00;102721.88;5263881;28;20039;-80
2022/02/07 13:56:08;;;;;;;15.45;4.75;;;;;;;8.49;100.00;102732.25;5287728;28;20022;-81
2022/02/07 13:58:40;;;;;;;8.25;2.20;;;;;;;8.63;100.00;102729.44;5269258;28;20031;-79
2022/02/07 14:04:00;;;;;;;28.13;6.40;;;;;;;8.52;100.00;102727.50;5287692;28;20115;-79
2022/02/07 14:06:33;;;;;;;13.88;4.43;;;;;;;8.58;100.00;102731.59;5286216;28;20114;-79
2022/02/07 14:09:09;;;;;;;6.80;1.88;;;;;;;8.76;100.00;102732.13;5268494;28;20040;-79
2022/02/07 14:11:40;;;;;;;15.43;3.03;;;;;;;8.80;100.00;102736.28;5286424;28;20019;-79
2022/02/07 14:14:11;;;;;;;9.55;2.47;;;;;;;8.71;100.00;102729.75;5268450;28;20128;-80